Time;durP1;ratioP1;P1;durP2;ratioP2;P2;SDS_P1;SDS_P2;PMS_P1;PMS_P2;Temp;Humidity;BMP_temperature;BMP_pressure;BME280_temperature;BME280_humidity;BME280_pressure;Samples;Min_cycle;Max_cycle;Signal;HPM_P1;HPM_P2
2021/03/09 00:00:38;;;;;;;1.50;0.70;;;;;;;-7.06;86.17;101610.81;5052319;28;20313;-70
2021/03/09 00:03:04;;;;;;;1.77;0.70;;;;;;;-7.10;87.26;101600.38;5035236;28;20718;-70
2021/03/09 00:05:30;;;;;;;1.10;0.70;;;;;;;-7.12;87.77;101607.09;5060473;28;20323;-70
2021/03/09 00:07:56;;;;;;;0.53;0.50;;;;;;;-7.15;88.50;101606.88;5046476;28;20329;-70
2021/03/09 00:10:23;;;;;;;1.67;0.77;;;;;;;-7.14;89.18;101607.78;5044056;28;20958;-70
2021/03/09 00:12:49;;;;;;;2.47;0.90;;;;;;;-7.18;88.95;101608.34;5065593;28;21004;-70
2021/03/09 00:15:15;;;;;;;1.47;0.90;;;;;;;-7.19;90.18;101610.03;5033164;28;20681;-70
2021/03/09 00:17:41;;;;;;;1.83;1.20;;;;;;;-7.20;90.04;101609.94;5064043;28;20382;-70
2021/03/09 00:20:08;;;;;;;1.10;0.80;;;;;;;-7.20;90.00;101607.38;5066006;28;20364;-70
2021/03/09 00:22:34;;;;;;;1.10;0.80;;;;;;;-7.24;89.49;101613.09;5064547;28;20283;-70
2021/03/09 00:25:01;;;;;;;1.67;0.73;;;;;;;-7.26;89.70;101609.53;5072268;28;20300;-70
2021/03/09 00:27:27;;;;;;;1.50;0.70;;;;;;;-7.29;89.65;101604.22;5051978;28;20398;-70
2021/03/09 00:29:53;;;;;;;1.57;0.80;;;;;;;-7.31;89.40;101608.31;5060355;28;20295;-70
2021/03/09 00:32:19;;;;;;;3.30;0.80;;;;;;;-7.34;89.39;101606.47;5054991;28;20299;-70
2021/03/09 00:34:45;;;;;;;1.33;0.90;;;;;;;-7.35;89.82;101620.09;5070652;28;20289;-70
2021/03/09 00:37:11;;;;;;;3.10;1.53;;;;;;;-7.38;91.32;101613.09;5049861;28;20294;-69
2021/03/09 00:39:37;;;;;;;2.03;1.00;;;;;;;-7.40;90.64;101613.75;5068782;28;20321;-70
2021/03/09 00:42:05;;;;;;;1.00;0.90;;;;;;;-7.43;91.20;101608.41;5030727;28;20294;-69
2021/03/09 00:44:31;;;;;;;0.83;0.80;;;;;;;-7.47;90.83;101604.78;5048654;28;20849;-69
2021/03/09 00:46:57;;;;;;;2.10;0.90;;;;;;;-7.49;90.73;101601.19;5036832;28;20349;-70
2021/03/09 00:49:23;;;;;;;1.80;0.93;;;;;;;-7.48;90.92;101614.91;5054519;28;20349;-70
2021/03/09 00:51:50;;;;;;;1.10;0.60;;;;;;;-7.52;90.50;101606.13;5046487;28;20310;-70
2021/03/09 00:54:16;;;;;;;1.60;0.80;;;;;;;-7.56;91.06;101599.03;5070168;28;20332;-70
2021/03/09 00:56:42;;;;;;;1.37;0.80;;;;;;;-7.58;91.66;101603.16;5050835;28;20787;-70
2021/03/09 00:59:09;;;;;;;1.10;0.70;;;;;;;-7.63;92.61;101599.41;5031865;28;20369;-70
2021/03/09 01:01:35;;;;;;;1.50;1.20;;;;;;;-7.64;92.94;101602.75;5049212;28;20282;-70
2021/03/09 01:04:01;;;;;;;2.67;1.10;;;;;;;-7.66;93.05;101594.03;5050910;28;20377;-70
2021/03/09 01:06:28;;;;;;;2.27;0.90;;;;;;;-7.65;93.59;101595.81;5038061;28;21099;-69
2021/03/09 01:08:54;;;;;;;4.60;1.03;;;;;;;-7.67;93.18;101594.84;5064859;28;20322;-69
2021/03/09 01:11:20;;;;;;;2.50;0.90;;;;;;;-7.68;93.33;101583.69;5046091;28;20289;-69
2021/03/09 01:13:46;;;;;;;1.97;0.90;;;;;;;-7.67;94.31;101577.75;5049146;28;20296;-70
2021/03/09 01:16:12;;;;;;;1.90;1.00;;;;;;;-7.67;94.58;101584.56;5044992;28;20299;-69
2021/03/09 01:18:39;;;;;;;1.03;0.90;;;;;;;-7.71;94.13;101580.03;5066721;28;20290;-69
2021/03/09 01:21:05;;;;;;;1.53;1.00;;;;;;;-7.69;94.96;101581.03;5052895;28;20278;-69
2021/03/09 01:23:32;;;;;;;1.63;0.93;;;;;;;-7.70;94.03;101581.81;5052500;28;20285;-70
2021/03/09 01:25:58;;;;;;;2.30;0.97;;;;;;;-7.69;93.57;101573.31;5069120;28;20289;-70
2021/03/09 01:28:25;;;;;;;1.33;0.97;;;;;;;-7.70;92.62;101572.44;5052479;28;20313;-69
2021/03/09 01:30:51;;;;;;;2.90;2.17;;;;;;;-7.72;93.04;101570.56;5034754;28;20291;-70
2021/03/09 01:33:17;;;;;;;2.03;1.20;;;;;;;-7.75;93.19;101567.78;5056378;28;20315;-70
2021/03/09 01:35:43;;;;;;;2.63;1.20;;;;;;;-7.77;93.64;101566.78;5070729;28;20286;-69
2021/03/09 01:38:10;;;;;;;1.77;1.27;;;;;;;-7.82;92.99;101556.25;5063124;28;20290;-69
2021/03/09 01:40:36;;;;;;;2.03;1.00;;;;;;;-7.83;93.12;101559.56;5067645;28;20340;-69
2021/03/09 01:43:03;;;;;;;2.47;1.30;;;;;;;-7.80;93.92;101558.91;5067245;28;20291;-69
2021/03/09 01:45:29;;;;;;;3.00;1.37;;;;;;;-7.84;93.70;101555.22;5047718;28;20511;-69
2021/03/09 01:48:01;;;;;;;1.60;1.00;;;;;;;-7.83;94.53;101553.53;5057703;28;20286;-69
2021/03/09 01:50:28;;;;;;;2.03;1.00;;;;;;;-7.87;93.41;101551.56;5032319;28;20398;-69
2021/03/09 01:52:55;;;;;;;1.67;1.10;;;;;;;-7.87;93.61;101551.56;5052352;28;20308;-69
2021/03/09 01:55:21;;;;;;;2.50;1.30;;;;;;;-7.88;93.02;101548.13;5045002;28;21005;-69
2021/03/09 01:57:49;;;;;;;2.20;1.30;;;;;;;-7.88;93.61;101542.09;5032516;28;20876;-70
2021/03/09 02:00:15;;;;;;;2.03;1.30;;;;;;;-7.89;93.96;101542.91;5052728;28;20295;-69
2021/03/09 02:02:42;;;;;;;2.50;1.30;;;;;;;-7.91;94.30;101544.44;5036537;28;20814;-69
2021/03/09 02:05:11;;;;;;;2.07;1.00;;;;;;;-7.91;94.35;101547.91;5048962;28;20375;-69
2021/03/09 02:07:37;;;;;;;2.27;1.27;;;;;;;-7.91;94.37;101539.31;5064002;28;20815;-69
2021/03/09 02:10:07;;;;;;;2.97;1.30;;;;;;;-7.91;94.82;101535.06;5029800;28;20286;-70
2021/03/09 02:12:53;;;;;;;2.20;1.20;;;;;;;-7.93;94.48;101537.53;5045925;28;20298;-69
2021/03/09 02:15:28;;;;;;;2.17;1.17;;;;;;;-7.93;94.08;101540.09;5060632;28;20370;-69
2021/03/09 02:18:00;;;;;;;4.33;1.60;;;;;;;-7.94;93.44;101537.44;5052599;28;20340;-69
2021/03/09 02:20:40;;;;;;;2.73;1.73;;;;;;;-7.93;93.82;101537.53;5028210;28;20283;-70
2021/03/09 02:23:29;;;;;;;3.67;1.53;;;;;;;-7.91;94.39;101532.50;5064375;28;20290;-69
2021/03/09 02:26:26;;;;;;;3.90;1.30;;;;;;;-7.93;94.02;101527.28;5044939;28;20340;-69
2021/03/09 02:29:17;;;;;;;2.43;1.57;;;;;;;-7.96;94.86;101529.66;5045276;28;20290;-69
2021/03/09 02:31:44;;;;;;;3.80;1.67;;;;;;;-7.99;94.76;101529.47;5066631;28;20775;-70
2021/03/09 02:34:12;;;;;;;3.10;1.50;;;;;;;-7.97;95.00;101522.75;5030817;28;20298;-69
2021/03/09 02:36:40;;;;;;;3.53;1.73;;;;;;;-7.98;94.87;101517.53;5017385;28;20339;-69
2021/03/09 02:39:08;;;;;;;2.30;1.60;;;;;;;-8.00;94.71;101524.19;5047766;28;20351;-69
2021/03/09 02:41:45;;;;;;;3.90;1.50;;;;;;;-8.01;94.22;101518.19;5041173;28;20295;-69
2021/03/09 02:44:15;;;;;;;4.60;1.60;;;;;;;-8.00;95.18;101511.38;5027016;28;20319;-70
2021/03/09 02:46:44;;;;;;;4.40;1.83;;;;;;;-8.02;94.32;101515.53;5048883;28;20301;-69
2021/03/09 02:49:27;;;;;;;3.20;1.50;;;;;;;-8.04;94.64;101517.09;5044053;28;20395;-70
2021/03/09 02:51:53;;;;;;;3.27;1.90;;;;;;;-8.05;94.45;101508.53;5047940;28;20405;-69
2021/03/09 02:54:21;;;;;;;2.93;1.50;;;;;;;-8.04;94.77;101511.97;5052020;28;20290;-69
2021/03/09 02:56:47;;;;;;;4.83;2.10;;;;;;;-8.03;95.61;101503.50;5050837;28;20291;-70
2021/03/09 02:59:14;;;;;;;3.67;2.43;;;;;;;-8.03;95.27;101501.81;5050385;28;20813;-69
2021/03/09 03:01:45;;;;;;;3.23;1.67;;;;;;;-8.01;95.46;101500.22;5069330;28;20290;-69
2021/03/09 03:04:14;;;;;;;4.07;2.07;;;;;;;-8.00;95.34;101501.13;5025269;28;20293;-69
2021/03/09 03:06:40;;;;;;;4.10;1.90;;;;;;;-7.98;95.84;101497.91;5068474;28;20313;-70
2021/03/09 03:09:07;;;;;;;2.93;1.50;;;;;;;-7.98;95.67;101494.44;5036076;28;20328;-69
2021/03/09 03:11:33;;;;;;;3.20;2.00;;;;;;;-7.97;95.45;101497.09;5044755;28;20364;-69
2021/03/09 03:14:02;;;;;;;4.27;1.87;;;;;;;-7.99;95.43;101490.06;5060206;28;20290;-69
2021/03/09 03:16:28;;;;;;;5.23;1.90;;;;;;;-8.01;95.20;101497.66;5034449;28;20287;-69
2021/03/09 03:18:58;;;;;;;4.57;2.13;;;;;;;-8.00;95.53;101498.56;5047472;28;20287;-69
2021/03/09 03:21:24;;;;;;;3.80;2.20;;;;;;;-8.01;95.35;101497.66;5052555;28;20290;-69
2021/03/09 03:23:51;;;;;;;5.30;2.17;;;;;;;-8.01;95.06;101499.34;5033533;28;20290;-70
2021/03/09 03:26:18;;;;;;;5.87;1.70;;;;;;;-8.01;94.57;101496.78;5032422;28;20787;-69
2021/03/09 03:28:45;;;;;;;4.57;1.90;;;;;;;-8.01;95.43;101496.78;5050546;28;20318;-69
2021/03/09 03:31:11;;;;;;;6.17;1.90;;;;;;;-8.03;95.60;101499.25;5053150;28;20872;-70
2021/03/09 03:33:38;;;;;;;3.30;1.80;;;;;;;-8.05;95.20;101495.69;5052431;28;20312;-69
2021/03/09 03:36:05;;;;;;;3.63;1.63;;;;;;;-8.06;95.18;101490.47;5052455;28;20322;-69
2021/03/09 03:38:33;;;;;;;4.53;1.90;;;;;;;-8.06;95.10;101493.03;5061334;28;20702;-69
2021/03/09 03:41:01;;;;;;;3.60;1.77;;;;;;;-8.08;95.14;101495.47;5054279;28;20290;-69
2021/03/09 03:43:27;;;;;;;4.83;2.50;;;;;;;-8.10;94.45;101488.47;5071081;28;20363;-69
2021/03/09 03:45:54;;;;;;;3.13;1.80;;;;;;;-8.10;94.94;101481.66;5036600;28;20902;-70
2021/03/09 03:48:21;;;;;;;5.07;1.83;;;;;;;-8.11;95.03;101487.59;5053072;28;20286;-69
2021/03/09 03:50:49;;;;;;;3.67;1.83;;;;;;;-8.15;94.74;101488.19;5048408;28;20362;-69
2021/03/09 03:53:20;;;;;;;2.67;1.70;;;;;;;-8.16;94.43;101488.06;5070980;28;20279;-69
2021/03/09 03:56:05;;;;;;;3.93;1.60;;;;;;;-8.18;94.35;101489.63;5035509;28;20293;-69
2021/03/09 03:58:44;;;;;;;4.60;2.07;;;;;;;-8.16;95.54;101486.38;5065579;28;21094;-70
2021/03/09 04:01:11;;;;;;;5.13;1.80;;;;;;;-8.18;96.14;101480.25;5047112;28;20335;-69
2021/03/09 04:03:38;;;;;;;4.33;1.80;;;;;;;-8.19;95.90;101487.84;5052250;28;20340;-69
2021/03/09 04:06:06;;;;;;;3.57;2.03;;;;;;;-8.22;96.50;101486.00;5027875;28;20287;-70
2021/03/09 04:08:34;;;;;;;3.97;1.90;;;;;;;-8.21;96.77;101485.19;5033549;28;20290;-70
2021/03/09 04:11:00;;;;;;;5.43;2.20;;;;;;;-8.24;97.21;101480.75;5048587;28;20344;-69
2021/03/09 04:13:28;;;;;;;4.67;2.23;;;;;;;-8.26;97.11;101484.88;5072090;28;20283;-69
2021/03/09 04:15:55;;;;;;;4.87;1.93;;;;;;;-8.28;96.83;101485.56;5048286;28;20294;-69
2021/03/09 04:18:22;;;;;;;4.13;1.70;;;;;;;-8.31;96.54;101476.00;5037921;28;20300;-69
2021/03/09 04:20:49;;;;;;;3.80;1.90;;;;;;;-8.32;96.02;101481.91;5053100;28;20381;-70
2021/03/09 04:23:16;;;;;;;4.77;2.07;;;;;;;-8.33;96.33;101481.78;5049116;28;20290;-69
2021/03/09 04:25:42;;;;;;;5.30;1.97;;;;;;;-8.32;96.91;101483.59;5065104;28;20352;-69
2021/03/09 04:28:10;;;;;;;4.53;1.90;;;;;;;-8.34;95.95;101482.56;5055870;28;20294;-69
2021/03/09 04:30:36;;;;;;;3.37;2.07;;;;;;;-8.38;96.02;101478.97;5036040;28;20344;-69
2021/03/09 04:33:03;;;;;;;4.67;2.10;;;;;;;-8.39;95.36;101471.19;5067166;28;20356;-69
2021/03/09 04:35:29;;;;;;;3.93;1.83;;;;;;;-8.42;94.91;101465.81;5050047;28;20291;-69
2021/03/09 04:37:56;;;;;;;4.77;1.80;;;;;;;-8.44;94.75;101470.84;5034831;28;20294;-69
2021/03/09 04:40:22;;;;;;;5.73;2.43;;;;;;;-8.47;95.27;101473.22;5034037;28;20317;-69
2021/03/09 04:42:48;;;;;;;4.83;2.20;;;;;;;-8.48;95.17;101473.13;5056443;28;20325;-69
2021/03/09 04:45:15;;;;;;;5.50;2.40;;;;;;;-8.49;95.17;101472.22;5019614;28;20345;-69
2021/03/09 04:47:41;;;;;;;4.17;2.47;;;;;;;-8.45;96.21;101469.06;5076442;28;20837;-69
2021/03/09 04:50:13;;;;;;;6.43;2.13;;;;;;;-8.46;96.60;101467.31;5052537;28;20874;-69
2021/03/09 04:52:40;;;;;;;5.03;2.20;;;;;;;-8.47;96.26;101475.78;5056793;28;20705;-69
2021/03/09 04:55:07;;;;;;;2.87;1.90;;;;;;;-8.47;96.96;101473.22;5028567;28;20295;-70
2021/03/09 04:57:41;;;;;;;3.67;2.27;;;;;;;-8.46;96.46;101466.41;5069564;28;20352;-69
2021/03/09 05:00:12;;;;;;;6.38;2.67;;;;;;;-8.47;96.40;101465.53;5052174;28;20299;-69
2021/03/09 05:02:41;;;;;;;5.20;2.20;;;;;;;-8.49;96.31;101456.84;5050993;28;20035;-70
2021/03/09 05:05:08;;;;;;;4.93;1.97;;;;;;;-8.51;96.47;101456.72;5053437;28;20436;-69
2021/03/09 05:07:34;;;;;;;4.90;2.37;;;;;;;-8.51;96.55;101456.72;5041665;28;20290;-69
2021/03/09 05:10:00;;;;;;;5.03;2.90;;;;;;;-8.51;96.77;101456.72;5078184;28;20285;-69
2021/03/09 05:12:26;;;;;;;4.77;2.40;;;;;;;-8.51;96.18;101458.41;5059137;28;20294;-69
2021/03/09 05:14:52;;;;;;;6.03;2.87;;;;;;;-8.48;96.37;101462.88;5042868;28;20961;-69
2021/03/09 05:17:19;;;;;;;4.03;2.30;;;;;;;-8.45;96.71;101466.50;5068639;28;20298;-70
2021/03/09 05:19:45;;;;;;;4.80;2.20;;;;;;;-8.43;97.08;101467.50;5043253;28;20283;-69
2021/03/09 05:22:11;;;;;;;6.33;2.47;;;;;;;-8.40;97.33;101464.28;5054958;28;20310;-69
2021/03/09 05:24:38;;;;;;;4.00;2.30;;;;;;;-8.39;97.62;101460.94;5072612;28;20286;-69
2021/03/09 05:27:04;;;;;;;5.53;2.33;;;;;;;-8.33;98.68;101462.16;5051631;28;20287;-69
2021/03/09 05:29:31;;;;;;;6.33;2.73;;;;;;;-8.27;98.17;101465.16;5048986;28;20340;-70
2021/03/09 05:31:57;;;;;;;5.33;3.03;;;;;;;-8.21;98.48;101459.56;5053385;28;20726;-69
2021/03/09 05:34:23;;;;;;;8.20;3.00;;;;;;;-8.13;98.51;101465.22;5053077;28;20291;-70
2021/03/09 05:36:50;;;;;;;4.83;2.63;;;;;;;-8.06;98.83;101460.59;5051271;28;20364;-69
2021/03/09 05:39:16;;;;;;;4.90;2.60;;;;;;;-8.04;98.93;101461.56;5051371;28;20294;-69
2021/03/09 05:41:42;;;;;;;3.63;2.30;;;;;;;-8.00;99.21;101460.09;5050288;28;20345;-69
2021/03/09 05:44:08;;;;;;;7.73;2.70;;;;;;;-7.99;98.95;101460.22;5052283;28;20360;-69
2021/03/09 05:46:34;;;;;;;5.27;2.50;;;;;;;-7.94;98.55;101457.94;5018226;28;20291;-69
2021/03/09 05:49:01;;;;;;;8.17;2.87;;;;;;;-7.91;98.44;101463.25;5068266;28;20318;-69
2021/03/09 05:51:47;;;;;;;4.33;2.47;;;;;;;-7.85;97.84;101462.78;5037255;28;20299;-69
2021/03/09 05:54:13;;;;;;;5.90;2.67;;;;;;;-7.78;97.52;101464.97;5052202;28;20282;-70
2021/03/09 05:56:39;;;;;;;5.30;2.53;;;;;;;-7.74;96.69;101460.13;5051696;28;20787;-70
2021/03/09 05:59:06;;;;;;;7.33;2.60;;;;;;;-7.68;95.86;101463.09;5049201;28;20315;-70
2021/03/09 06:01:32;;;;;;;4.17;2.17;;;;;;;-7.61;95.29;101466.97;5035685;28;20309;-69
2021/03/09 06:03:59;;;;;;;6.03;2.80;;;;;;;-7.52;95.54;101464.09;5054416;28;20955;-69
2021/03/09 06:06:25;;;;;;;5.50;2.97;;;;;;;-7.45;94.92;101458.56;5087448;28;20286;-70
2021/03/09 06:08:51;;;;;;;5.40;3.00;;;;;;;-7.37;94.94;101465.09;5057376;28;20278;-70
2021/03/09 06:11:19;;;;;;;5.63;3.27;;;;;;;-7.28;93.95;101457.97;5034838;28;20357;-70
2021/03/09 06:13:46;;;;;;;5.73;2.57;;;;;;;-7.20;94.28;101454.22;5047831;28;20314;-69
2021/03/09 06:16:12;;;;;;;5.33;2.50;;;;;;;-7.10;94.88;101463.38;5028896;28;20290;-70
2021/03/09 06:18:51;;;;;;;4.10;2.90;;;;;;;-7.00;93.86;101460.59;5067804;28;20298;-70
2021/03/09 06:21:17;;;;;;;5.37;2.73;;;;;;;-6.91;93.78;101461.16;5069578;28;20383;-70
2021/03/09 06:23:45;;;;;;;5.47;2.60;;;;;;;-6.79;93.25;101465.31;5067311;28;20323;-70
2021/03/09 06:26:40;;;;;;;5.90;2.97;;;;;;;-6.67;93.50;101455.75;5039094;28;20910;-70
2021/03/09 06:29:11;;;;;;;4.68;2.35;;;;;;;-6.56;92.99;101459.88;5069585;28;20314;-70
2021/03/09 06:31:42;;;;;;;6.47;2.87;;;;;;;-6.41;91.83;101463.38;5036597;28;20827;-70
2021/03/09 06:34:29;;;;;;;8.17;3.90;;;;;;;-6.23;91.45;101463.59;5045864;28;20787;-70
2021/03/09 06:37:11;;;;;;;9.60;4.60;;;;;;;-6.06;91.11;101472.28;5026859;28;20297;-71
2021/03/09 06:39:55;;;;;;;16.57;7.57;;;;;;;-5.88;91.01;101463.06;5035230;28;20818;-71
2021/03/09 06:42:23;;;;;;;9.85;4.95;;;;;;;-5.72;90.19;101464.81;5029795;28;20287;-70
2021/03/09 06:44:51;;;;;;;7.63;3.30;;;;;;;-5.53;90.20;101461.63;5048119;28;20048;-70
2021/03/09 06:47:18;;;;;;;6.93;3.90;;;;;;;-5.38;89.45;101465.97;5069493;28;20129;-71
2021/03/09 06:49:52;;;;;;;7.07;3.40;;;;;;;-5.21;88.83;101466.91;5048518;28;20860;-72
2021/03/09 06:52:25;;;;;;;7.17;4.73;;;;;;;-4.95;86.75;101473.50;5032639;28;20290;-70
2021/03/09 06:54:54;;;;;;;7.33;4.33;;;;;;;-4.76;85.82;101464.19;5039281;28;20028;-70
2021/03/09 06:57:21;;;;;;;8.47;4.83;;;;;;;-4.47;81.16;101466.59;5028418;28;20544;-72
2021/03/09 06:59:49;;;;;;;5.70;3.20;;;;;;;-4.33;82.33;101467.34;5022564;28;20103;-71
2021/03/09 07:02:17;;;;;;;8.43;3.33;;;;;;;-4.12;82.67;101464.97;5044890;28;20062;-71
2021/03/09 07:04:45;;;;;;;8.43;4.07;;;;;;;-3.91;81.84;101471.25;5051437;28;20032;-70
2021/03/09 07:07:20;;;;;;;7.17;5.10;;;;;;;-3.73;77.44;101468.69;5050920;28;20041;-70
2021/03/09 07:10:17;;;;;;;10.23;4.63;;;;;;;-3.45;77.53;101468.34;5066842;28;20169;-72
2021/03/09 07:12:50;;;;;;;6.03;3.83;;;;;;;-3.04;77.05;101462.59;5044587;28;20132;-70
2021/03/09 07:15:18;;;;;;;8.13;3.80;;;;;;;-2.85;75.58;101465.22;5048821;28;20040;-70
2021/03/09 07:17:46;;;;;;;8.47;4.50;;;;;;;-2.76;73.66;101461.31;5048958;28;20037;-71
2021/03/09 07:20:15;;;;;;;8.47;3.97;;;;;;;-2.72;72.11;101465.78;5033922;28;20044;-70
2021/03/09 07:22:51;;;;;;;7.83;4.43;;;;;;;-2.49;70.86;101472.91;5046362;28;20429;-73
2021/03/09 07:25:18;;;;;;;7.97;3.87;;;;;;;-2.30;70.16;101462.53;5043586;28;20049;-70
2021/03/09 07:27:58;;;;;;;47.67;35.97;;;;;;;-1.84;68.46;101464.53;5070413;28;20108;-71
2021/03/09 07:30:27;;;;;;;11.93;6.30;;;;;;;-0.81;66.04;101461.78;5030339;28;20425;-70
2021/03/09 07:32:55;;;;;;;7.67;4.13;;;;;;;0.49;66.88;101462.09;5063483;28;20063;-72
2021/03/09 07:35:23;;;;;;;8.73;4.80;;;;;;;1.74;62.42;101456.38;5025366;28;20040;-71
2021/03/09 07:37:51;;;;;;;10.20;4.00;;;;;;;2.78;55.27;101457.38;5063020;28;20551;-72
2021/03/09 07:40:20;;;;;;;8.03;4.00;;;;;;;3.19;52.65;101460.91;5031689;28;20277;-73
2021/03/09 07:42:46;;;;;;;7.70;3.80;;;;;;;3.82;53.71;101454.41;5042817;28;20048;-71
2021/03/09 07:45:17;;;;;;;6.30;3.20;;;;;;;4.61;49.32;101463.69;5027267;28;20055;-70
2021/03/09 07:47:47;;;;;;;7.40;3.40;;;;;;;5.34;44.48;101450.84;5039637;28;20087;-74
2021/03/09 07:50:13;;;;;;;9.13;4.63;;;;;;;5.82;45.07;101444.47;5024408;28;20040;-70
2021/03/09 07:52:39;;;;;;;7.17;3.90;;;;;;;6.48;43.89;101454.81;5058567;28;20032;-71
2021/03/09 07:55:04;;;;;;;8.07;4.03;;;;;;;7.18;42.94;101454.44;5046366;28;20453;-73
2021/03/09 07:57:31;;;;;;;6.77;3.47;;;;;;;7.78;40.75;101444.22;5047214;28;20520;-74
2021/03/09 07:59:57;;;;;;;6.40;3.83;;;;;;;8.79;39.55;101441.75;5045815;28;20116;-72
2021/03/09 08:02:47;;;;;;;8.27;4.10;;;;;;;8.66;36.84;101440.88;5065044;28;20115;-72
2021/03/09 08:05:19;;;;;;;6.60;4.22;;;;;;;9.51;38.76;101440.72;5038250;28;20048;-75
2021/03/09 08:07:54;;;;;;;7.20;4.18;;;;;;;10.10;35.66;101426.38;5063008;28;20424;-73
2021/03/09 08:10:42;;;;;;;6.45;4.00;;;;;;;10.76;34.47;101433.78;5033496;28;20409;-74
2021/03/09 08:13:07;;;;;;;9.52;5.00;;;;;;;10.86;32.52;101424.91;5043820;28;20028;-76
2021/03/09 08:15:38;;;;;;;7.55;5.00;;;;;;;10.82;32.85;101430.22;5031464;28;20087;-73
2021/03/09 08:18:17;;;;;;;7.57;4.20;;;;;;;11.24;30.52;101428.94;5046658;28;20495;-71
2021/03/09 08:20:53;;;;;;;6.07;4.05;;;;;;;12.01;31.12;101427.09;5043467;28;20048;-74
2021/03/09 08:23:34;;;;;;;6.60;4.38;;;;;;;12.54;32.08;101424.56;5046695;28;20086;-74
2021/03/09 08:26:04;;;;;;;9.35;5.03;;;;;;;13.47;30.73;101417.56;5043749;28;20610;-72
2021/03/09 08:28:47;;;;;;;5.57;3.72;;;;;;;13.51;28.39;101412.16;5042260;28;20153;-73
2021/03/09 08:31:16;;;;;;;6.25;4.10;;;;;;;12.50;28.88;101417.53;5062384;28;20041;-75
2021/03/09 08:33:49;;;;;;;5.82;3.20;;;;;;;13.58;26.25;101414.69;5046990;28;20479;-73
2021/03/09 08:36:22;;;;;;;5.72;3.53;;;;;;;13.51;26.67;101414.81;5042666;28;20445;-74
2021/03/09 08:39:00;;;;;;;4.97;3.33;;;;;;;14.04;27.52;101412.78;5063274;28;20115;-76
2021/03/09 08:41:47;;;;;;;6.03;3.30;;;;;;;15.15;25.27;101408.25;5043085;28;20052;-72
2021/03/09 08:44:26;;;;;;;6.57;3.97;;;;;;;15.96;25.59;101398.78;5038577;28;20412;-76
2021/03/09 08:47:07;;;;;;;5.68;3.50;;;;;;;16.18;24.33;101396.34;5014074;28;20057;-73
2021/03/09 08:49:37;;;;;;;5.03;3.25;;;;;;;17.12;24.62;101392.25;5027664;28;20507;-75
2021/03/09 08:52:05;;;;;;;4.88;3.00;;;;;;;16.00;24.77;101387.13;5064894;28;20455;-73
2021/03/09 08:54:32;;;;;;;5.25;3.10;;;;;;;16.47;24.54;101382.03;5052174;28;20045;-72
2021/03/09 08:57:01;;;;;;;5.50;3.20;;;;;;;17.05;24.37;101380.06;5063407;28;20049;-74
2021/03/09 08:59:29;;;;;;;5.38;3.10;;;;;;;16.95;23.87;101389.31;5027588;28;20501;-72
2021/03/09 09:02:06;;;;;;;5.68;3.47;;;;;;;16.52;24.41;101384.56;5026597;28;20090;-73
2021/03/09 09:04:32;;;;;;;3.90;2.78;;;;;;;17.37;22.54;101386.03;5059145;28;20061;-72
2021/03/09 09:06:59;;;;;;;4.10;3.20;;;;;;;18.17;22.33;101382.06;5040949;28;20044;-72
2021/03/09 09:09:30;;;;;;;4.38;2.78;;;;;;;18.86;21.46;101378.31;5037102;28;20040;-73
2021/03/09 09:11:56;;;;;;;4.78;3.17;;;;;;;17.91;21.22;101376.88;5040826;28;20048;-74
2021/03/09 09:14:22;;;;;;;5.10;3.38;;;;;;;17.73;20.37;101373.97;5048416;28;20040;-72
2021/03/09 09:16:48;;;;;;;4.68;3.58;;;;;;;17.91;22.02;101364.38;5048423;28;20129;-72
2021/03/09 09:19:14;;;;;;;4.75;3.30;;;;;;;19.06;19.98;101370.28;5025354;28;20506;-72
2021/03/09 09:21:46;;;;;;;5.65;3.08;;;;;;;19.83;20.32;101371.19;5065402;28;20132;-73
2021/03/09 09:24:19;;;;;;;3.58;2.50;;;;;;;19.71;18.04;101361.06;5064606;28;20622;-73
2021/03/09 09:26:45;;;;;;;3.97;2.78;;;;;;;19.79;19.92;101366.94;5033957;28;20048;-73
2021/03/09 09:29:12;;;;;;;3.05;2.53;;;;;;;19.76;20.07;101364.41;5049699;28;20049;-74
2021/03/09 09:31:38;;;;;;;2.85;2.08;;;;;;;20.47;18.97;101364.53;5058922;28;20126;-73
2021/03/09 09:34:05;;;;;;;2.72;2.05;;;;;;;20.44;19.17;101359.31;5049225;28;20055;-72
2021/03/09 09:36:32;;;;;;;4.60;2.35;;;;;;;18.34;19.27;101367.13;5041019;28;20110;-75
2021/03/09 09:38:58;;;;;;;3.38;2.50;;;;;;;19.52;17.97;101369.06;5063603;28;20048;-75
2021/03/09 09:41:25;;;;;;;3.42;2.20;;;;;;;20.20;18.97;101364.06;5043468;28;20082;-73
2021/03/09 09:43:52;;;;;;;4.63;2.40;;;;;;;20.04;18.09;101368.44;5041273;28;20068;-75
2021/03/09 09:46:21;;;;;;;4.18;2.80;;;;;;;20.78;17.89;101362.00;5054349;28;20398;-73
2021/03/09 09:48:48;;;;;;;6.00;3.38;;;;;;;21.41;18.08;101355.13;5028738;28;20417;-77
2021/03/09 09:51:16;;;;;;;5.47;2.88;;;;;;;22.03;16.50;101348.06;5020132;28;20055;-74
2021/03/09 09:53:44;;;;;;;5.50;3.03;;;;;;;21.77;16.92;101352.22;5043352;28;20040;-73
2021/03/09 09:56:12;;;;;;;2.50;2.13;;;;;;;20.46;16.47;101350.22;5040967;28;20148;-73
2021/03/09 09:58:51;;;;;;;2.97;2.08;;;;;;;20.65;17.86;101351.97;5038523;28;20040;-76
2021/03/09 10:01:38;;;;;;;2.65;1.90;;;;;;;22.19;15.91;101349.81;5033723;28;20040;-76
2021/03/09 10:04:09;;;;;;;3.75;2.10;;;;;;;19.88;18.21;101352.22;5056379;28;20147;-74
2021/03/09 10:06:46;;;;;;;3.22;2.47;;;;;;;19.93;17.76;101356.41;5044269;28;20043;-76
2021/03/09 10:09:18;;;;;;;4.90;2.35;;;;;;;21.14;17.77;101352.09;5041406;28;20064;-75
2021/03/09 10:11:45;;;;;;;3.13;1.90;;;;;;;21.01;19.10;101349.19;5060518;28;20434;-72
2021/03/09 10:14:12;;;;;;;3.15;2.00;;;;;;;20.84;16.66;101344.69;5028487;28;20480;-73
2021/03/09 10:16:39;;;;;;;3.05;2.10;;;;;;;22.03;17.42;101334.59;5033205;28;20039;-76
2021/03/09 10:19:10;;;;;;;2.88;2.20;;;;;;;22.09;17.42;101339.66;5020945;28;20515;-73
2021/03/09 10:21:38;;;;;;;2.33;1.83;;;;;;;23.06;15.46;101338.38;5054792;28;20041;-75
2021/03/09 10:24:06;;;;;;;3.15;2.20;;;;;;;22.00;16.32;101341.03;5061296;28;20052;-73
2021/03/09 10:26:34;;;;;;;3.00;2.20;;;;;;;22.90;14.91;101343.81;5042107;28;20583;-75
2021/03/09 10:29:01;;;;;;;2.67;1.70;;;;;;;22.39;16.47;101337.88;5056461;28;20046;-75
2021/03/09 10:31:47;;;;;;;3.03;1.80;;;;;;;22.63;15.00;101340.09;5060099;28;20514;-72
2021/03/09 10:34:15;;;;;;;3.53;2.47;;;;;;;18.79;16.82;101342.91;5040352;28;20040;-74
2021/03/09 10:37:00;;;;;;;3.70;2.17;;;;;;;19.28;17.44;101338.03;5061931;28;20122;-75
2021/03/09 10:39:28;;;;;;;3.33;2.20;;;;;;;20.99;16.91;101326.91;5061049;28;20691;-73
2021/03/09 10:41:54;;;;;;;6.28;2.28;;;;;;;21.70;16.97;101316.75;5028999;28;20044;-74
2021/03/09 10:44:28;;;;;;;4.65;2.47;;;;;;;23.08;15.33;101335.56;5038708;28;20047;-73
2021/03/09 10:46:54;;;;;;;2.97;2.13;;;;;;;22.04;14.47;101325.59;5061312;28;20040;-74
2021/03/09 10:49:21;;;;;;;2.50;1.77;;;;;;;21.31;15.46;101327.91;5048265;28;20051;-75
2021/03/09 10:51:48;;;;;;;2.97;1.85;;;;;;;21.24;16.44;101334.50;5011822;28;20588;-75
2021/03/09 10:54:14;;;;;;;2.80;2.17;;;;;;;22.46;16.85;101323.09;5040436;28;20036;-75
2021/03/09 10:56:40;;;;;;;3.45;1.98;;;;;;;22.84;16.51;101324.44;5063695;28;20569;-73
2021/03/09 10:59:06;;;;;;;3.65;2.35;;;;;;;23.42;15.84;101320.84;5063737;28;20048;-74
2021/03/09 11:01:32;;;;;;;2.72;2.15;;;;;;;23.62;15.04;101316.88;5060040;28;20036;-74
2021/03/09 11:03:59;;;;;;;2.50;1.80;;;;;;;23.56;14.47;101313.59;5011128;28;20054;-75
2021/03/09 11:06:25;;;;;;;3.30;2.22;;;;;;;24.03;14.27;101316.88;5045507;28;20033;-75
2021/03/09 11:08:51;;;;;;;4.25;2.10;;;;;;;22.41;15.21;101313.56;5030614;28;20076;-74
2021/03/09 11:11:17;;;;;;;2.45;2.13;;;;;;;22.21;16.13;101313.88;5028293;28;20040;-74
2021/03/09 11:14:02;;;;;;;3.38;2.13;;;;;;;21.89;16.22;101313.88;5049758;28;20052;-71
2021/03/09 11:16:30;;;;;;;2.55;2.00;;;;;;;20.26;15.97;101312.75;5057393;28;20109;-72
2021/03/09 11:18:58;;;;;;;3.92;2.22;;;;;;;21.62;16.27;101308.25;5045959;28;20052;-71
2021/03/09 11:21:25;;;;;;;3.13;2.03;;;;;;;22.33;15.62;101313.16;5027084;28;20131;-72
2021/03/09 11:23:51;;;;;;;3.78;2.15;;;;;;;21.69;14.65;101306.94;5045667;28;20761;-72
2021/03/09 11:26:19;;;;;;;2.78;2.08;;;;;;;22.59;16.05;101308.91;5024389;28;20049;-73
2021/03/09 11:28:46;;;;;;;2.80;2.15;;;;;;;22.57;14.63;101309.00;5037772;28;20055;-72
2021/03/09 11:31:14;;;;;;;3.83;2.50;;;;;;;21.36;16.47;101301.66;5047290;28;20675;-72
2021/03/09 11:33:41;;;;;;;4.35;2.10;;;;;;;20.95;16.46;101301.16;5045290;28;20037;-74